createdAt,value
2016-12-02T00:00:48.838Z,78.56
2016-12-02T00:02:02.861Z,78.19
2016-12-02T00:03:17.623Z,78.85
2016-12-02T00:04:31.737Z,78.95
2016-12-02T00:05:46.622Z,78.95
2016-12-02T00:07:00.758Z,78.95
2016-12-02T00:08:14.900Z,78.66
2016-12-02T00:09:28.912Z,78.95
2016-12-02T00:10:43.033Z,78.75
2016-12-02T00:11:57.326Z,78.47
2016-12-02T00:13:11.619Z,78.47
2016-12-02T00:14:26.128Z,78.66
2016-12-02T00:15:40.660Z,78.38
2016-12-02T00:16:55.096Z,78.56
2016-12-02T00:18:08.887Z,78.95
2016-12-02T00:19:23.294Z,78.38
2016-12-02T00:20:37.207Z,78.47
2016-12-02T00:21:51.359Z,78.61
2016-12-02T00:23:05.653Z,78.47
2016-12-02T00:24:19.930Z,79.04
2016-12-02T00:25:33.903Z,79.04
2016-12-02T00:26:48.063Z,78.85
2016-12-02T00:28:02.279Z,78.95
2016-12-02T00:29:16.460Z,79.23
2016-12-02T00:30:30.677Z,79.23
2016-12-02T00:31:44.790Z,79.33
2016-12-02T00:32:58.989Z,79.61
2016-12-02T00:34:13.339Z,79.42
2016-12-02T00:35:28.834Z,79.52
2016-12-02T00:38:12.213Z,79.42
2016-12-02T00:39:27.172Z,79.42
2016-12-02T00:40:41.239Z,79.04
2016-12-02T00:41:55.183Z,79.14
2016-12-02T00:43:09.392Z,78.66
2016-12-02T00:44:23.425Z,78.85
2016-12-02T00:45:37.917Z,78.75
2016-12-02T00:46:51.852Z,78.66
2016-12-02T00:48:05.893Z,78.75
2016-12-02T00:49:20.052Z,79.14
2016-12-02T00:50:34.018Z,79.04
2016-12-02T00:51:48.617Z,78.85
2016-12-02T00:53:02.506Z,79.14
2016-12-02T00:54:16.325Z,79.33
2016-12-02T00:55:32.487Z,79.04
2016-12-02T00:56:46.410Z,79.61
2016-12-02T00:58:01.022Z,79.8
2016-12-02T00:59:15.549Z,79.61
2016-12-02T01:00:29.320Z,79.8
2016-12-02T01:01:43.186Z,79.52
2016-12-02T01:02:57.170Z,79.33
2016-12-02T01:04:11.131Z,79.9
2016-12-02T01:05:25.482Z,80.18
2016-12-02T01:06:40.077Z,79.8
2016-12-02T01:07:54.286Z,79.99
2016-12-02T01:09:08.203Z,79.61
2016-12-02T01:10:22.437Z,79.42
2016-12-02T01:11:36.500Z,79.8
2016-12-02T01:12:50.540Z,79.61
2016-12-02T01:14:04.605Z,79.8
2016-12-02T01:15:18.689Z,79.9
2016-12-02T01:16:32.973Z,79.71
2016-12-02T01:17:47.015Z,79.9
2016-12-02T01:19:01.378Z,79.9
2016-12-02T01:20:15.360Z,79.71
2016-12-02T01:21:29.269Z,79.52
2016-12-02T01:22:43.708Z,79.8
2016-12-02T01:23:57.532Z,79.9
2016-12-02T01:25:11.972Z,79.99
2016-12-02T01:26:25.882Z,79.8
2016-12-02T01:27:39.757Z,79.71
2016-12-02T01:28:54.264Z,79.61
2016-12-02T01:30:08.246Z,80.46
2016-12-02T01:31:22.597Z,80.27
2016-12-02T01:32:36.824Z,80.37
2016-12-02T01:33:50.886Z,79.9
2016-12-02T01:35:05.048Z,79.99
2016-12-02T01:36:18.870Z,79.99
2016-12-02T01:37:33.120Z,80.18
2016-12-02T01:38:47.495Z,80.18
2016-12-02T01:40:01.578Z,80.46
2016-12-02T01:41:15.895Z,80.18
2016-12-02T01:42:29.798Z,80.56
2016-12-02T01:43:43.807Z,80.27
2016-12-02T01:44:57.531Z,80.46
2016-12-02T01:46:11.791Z,80.56
2016-12-02T01:47:26.113Z,80.27
2016-12-02T01:48:39.962Z,80.37
2016-12-02T01:49:53.954Z,80.27
2016-12-02T01:51:07.967Z,80.65
2016-12-02T01:52:22.240Z,80.37
2016-12-02T01:53:36.471Z,80.37
2016-12-02T01:54:50.519Z,80.08
2016-12-02T01:56:04.619Z,79.99
2016-12-02T01:57:18.393Z,80.65
2016-12-02T01:58:32.934Z,80.94
2016-12-02T01:59:47.394Z,80.65
2016-12-02T02:01:01.282Z,80.94
2016-12-02T02:02:15.393Z,81.13
2016-12-02T02:03:29.143Z,81.13
2016-12-02T02:04:43.407Z,81.23
2016-12-02T02:05:57.406Z,81.32
2016-12-02T02:07:11.577Z,81.32
2016-12-02T02:08:25.496Z,80.94
2016-12-02T02:09:39.385Z,81.32
2016-12-02T02:10:53.258Z,81.23
2016-12-02T02:12:09.848Z,81.32
2016-12-02T02:13:23.754Z,81.32
2016-12-02T02:14:37.671Z,81.23
2016-12-02T02:15:51.646Z,81.6
2016-12-02T02:17:05.568Z,81.51
2016-12-02T02:18:19.777Z,81.98
2016-12-02T02:19:34.250Z,82.17
2016-12-02T02:20:48.233Z,82.08
2016-12-02T02:22:02.179Z,82.46
2016-12-02T02:23:16.197Z,82.27
2016-12-02T02:24:30.217Z,82.74
2016-12-02T02:25:44.636Z,82.55
2016-12-02T02:26:58.293Z,82.84
2016-12-02T02:28:12.165Z,83.03
2016-12-02T02:29:26.205Z,82.36
2016-12-02T02:30:40.463Z,82.17
2016-12-02T02:31:54.964Z,82.55
2016-12-02T02:33:08.859Z,82.84
2016-12-02T02:34:22.608Z,82.74
2016-12-02T02:35:36.423Z,83.59
2016-12-02T02:36:50.509Z,83.22
2016-12-02T02:38:02.096Z,83.22
2016-12-02T02:39:13.853Z,83.5
2016-12-02T02:40:25.112Z,83.5
2016-12-02T02:41:36.461Z,83.4
2016-12-02T02:42:47.974Z,83.12
2016-12-02T02:43:59.219Z,83.4
2016-12-02T02:45:10.808Z,83.31
2016-12-02T02:46:22.398Z,83.22
2016-12-02T02:47:33.794Z,83.22
2016-12-02T02:48:45.425Z,83.4
2016-12-02T02:49:56.600Z,83.4
2016-12-02T02:51:08.145Z,83.12
2016-12-02T02:52:19.406Z,83.4
2016-12-02T02:53:31.004Z,83.22
2016-12-02T02:54:43.204Z,83.5
2016-12-02T02:55:54.523Z,83.55
2016-12-02T02:57:05.856Z,83.78
2016-12-02T02:58:17.280Z,83.31
2016-12-02T02:59:28.705Z,83.31
2016-12-02T03:00:40.636Z,83.4
2016-12-02T03:01:52.188Z,83.31
2016-12-02T03:03:03.514Z,83.22
2016-12-02T03:04:14.972Z,83.31
2016-12-02T03:05:26.378Z,83.4
2016-12-02T03:06:38.037Z,83.03
2016-12-02T03:07:49.840Z,83.12
2016-12-02T03:09:01.276Z,83.31
2016-12-02T03:10:12.905Z,83.22
2016-12-02T03:11:39.250Z,83.5
2016-12-02T03:12:50.566Z,83.22
2016-12-02T03:14:01.819Z,82.74
2016-12-02T03:15:13.436Z,82.74
2016-12-02T03:16:25.787Z,83.03
2016-12-02T03:17:37.113Z,82.08
2016-12-02T03:18:49.063Z,82.46
2016-12-02T03:20:00.344Z,82.46
2016-12-02T03:21:11.540Z,82.27
2016-12-02T03:22:23.171Z,81.79
2016-12-02T03:23:34.601Z,81.88
2016-12-02T03:24:46.200Z,81.6
2016-12-02T03:25:57.719Z,81.13
2016-12-02T03:27:11.610Z,81.13
2016-12-02T03:28:23.334Z,81.32
2016-12-02T03:29:34.958Z,80.84
2016-12-02T03:30:46.720Z,80.84
2016-12-02T03:31:58.151Z,81.13
2016-12-02T03:33:09.879Z,81.23
2016-12-02T03:36:03.019Z,81.23
2016-12-02T03:37:14.653Z,80.94
2016-12-02T03:38:26.138Z,80.84
2016-12-02T03:39:37.913Z,81.13
2016-12-02T03:42:45.299Z,80.41
2016-12-02T03:43:56.692Z,80.18
2016-12-02T03:45:08.495Z,80.51
2016-12-02T03:46:20.075Z,80.75
2016-12-02T03:47:31.422Z,81.04
2016-12-02T03:48:42.823Z,81.13
2016-12-02T03:49:54.594Z,81.51
2016-12-02T03:51:06.368Z,82.08
2016-12-02T03:52:17.818Z,81.7
2016-12-02T03:53:29.336Z,81.88
2016-12-02T03:54:40.868Z,81.79
2016-12-02T03:55:53.074Z,81.98
2016-12-02T03:57:05.345Z,81.7
2016-12-02T03:58:16.894Z,81.7
2016-12-02T03:59:28.588Z,81.7
2016-12-02T04:00:39.978Z,81.7
2016-12-02T04:01:51.559Z,81.51
2016-12-02T04:03:03.390Z,81.6
2016-12-02T04:04:14.773Z,81.7
2016-12-02T04:05:26.255Z,81.51
2016-12-02T04:06:37.990Z,81.7
2016-12-02T04:07:49.770Z,81.74
2016-12-02T04:09:01.803Z,81.17
2016-12-02T04:10:13.300Z,81.6
2016-12-02T04:11:24.808Z,81.13
2016-12-02T04:12:51.097Z,81.13
2016-12-02T04:14:03.009Z,80.98
2016-12-02T04:15:14.835Z,80.79
2016-12-02T04:16:26.309Z,80.79
2016-12-02T04:17:37.700Z,80.69
2016-12-02T04:18:48.950Z,80.6
2016-12-02T04:20:00.679Z,80.79
2016-12-02T04:21:12.150Z,80.6
2016-12-02T04:22:23.938Z,80.88
2016-12-02T04:23:35.568Z,80.6
2016-12-02T04:24:47.262Z,80.32
2016-12-02T04:25:58.911Z,80.6
2016-12-02T04:27:10.405Z,80.88
2016-12-02T04:28:22.090Z,80.98
2016-12-02T04:29:33.637Z,80.98
2016-12-02T04:30:45.044Z,80.6
2016-12-02T04:31:56.977Z,80.6
2016-12-02T04:33:08.414Z,80.22
2016-12-02T04:34:19.947Z,80.51
2016-12-02T04:35:31.762Z,80.41
2016-12-02T04:36:43.227Z,80.32
2016-12-02T04:37:54.987Z,80.03
2016-12-02T04:39:06.646Z,80.79
2016-12-02T04:40:17.897Z,80.32
2016-12-02T04:41:30.517Z,80.69
2016-12-02T04:42:43.395Z,80.51
2016-12-02T04:43:54.935Z,80.69
2016-12-02T04:45:06.266Z,80.98
2016-12-02T04:46:17.496Z,81.36
2016-12-02T04:47:28.932Z,81.74
2016-12-02T04:48:40.570Z,81.36
2016-12-02T04:49:52.505Z,81.26
2016-12-02T04:51:04.135Z,81.36
2016-12-02T04:52:15.634Z,81.55
2016-12-02T04:53:26.931Z,80.88
2016-12-02T04:54:38.203Z,80.98
2016-12-02T04:55:49.998Z,80.88
2016-12-02T04:57:01.394Z,80.98
2016-12-02T04:58:13.174Z,80.6
2016-12-02T04:59:24.773Z,80.13
2016-12-02T05:00:36.265Z,80.51
2016-12-02T05:01:48.052Z,80.88
2016-12-02T05:02:59.547Z,80.88
2016-12-02T05:04:11.390Z,80.98
2016-12-02T05:05:22.751Z,80.79
2016-12-02T05:06:34.079Z,80.79
2016-12-02T05:07:45.928Z,80.69
2016-12-02T05:08:57.285Z,80.79
2016-12-02T05:10:08.880Z,80.88
2016-12-02T05:11:20.269Z,80.98
2016-12-02T05:12:46.599Z,81.45
2016-12-02T05:13:58.456Z,81.36
2016-12-02T05:15:09.968Z,80.69
2016-12-02T05:16:21.425Z,80.88
2016-12-02T05:17:32.729Z,80.98
2016-12-02T05:18:44.354Z,80.6
2016-12-02T05:19:56.022Z,80.6
2016-12-02T05:21:07.554Z,80.41
2016-12-02T05:22:19.498Z,80.41
2016-12-02T05:23:30.945Z,80.32
2016-12-02T05:24:42.191Z,80.51
2016-12-02T05:25:53.686Z,85.06
2016-12-02T05:27:05.372Z,81.4
2016-12-02T05:28:16.804Z,79.88
2016-12-02T05:29:28.333Z,79.6
2016-12-02T05:30:39.731Z,79.12
2016-12-02T05:31:51.297Z,78.83
2016-12-02T05:33:02.784Z,79.12
2016-12-02T05:34:14.500Z,79.46
2016-12-02T05:35:26.025Z,79.36
2016-12-02T05:36:37.744Z,79.41
2016-12-02T05:37:49.554Z,79.55
2016-12-02T05:39:00.838Z,79.94
2016-12-02T05:40:12.462Z,79.84
2016-12-02T05:46:14.204Z,79.94
2016-12-02T05:47:26.182Z,80.13
2016-12-02T05:48:37.562Z,79.74
2016-12-02T05:49:49.054Z,79.94
2016-12-02T05:51:00.592Z,79.74
2016-12-02T05:52:11.830Z,80.03
2016-12-02T05:53:23.542Z,79.88
2016-12-02T05:54:35.533Z,79.55
2016-12-02T05:55:47.137Z,80.03
2016-12-02T05:56:58.426Z,80.03
2016-12-02T05:58:10.026Z,79.74
2016-12-02T05:59:24.119Z,79.55
2016-12-02T06:00:35.804Z,79.55
2016-12-02T06:01:47.207Z,79.55
2016-12-02T06:02:59.036Z,79.84
2016-12-02T06:04:10.911Z,79.84
2016-12-02T06:05:23.011Z,79.65
2016-12-02T06:06:34.425Z,80.03
2016-12-02T06:07:46.216Z,80.13
2016-12-02T06:08:57.411Z,79.84
2016-12-02T06:10:09.040Z,79.84
2016-12-02T06:11:21.046Z,79.88
2016-12-02T06:12:32.225Z,79.84
2016-12-02T06:13:43.610Z,79.65
2016-12-02T06:14:55.298Z,80.03
2016-12-02T06:16:06.681Z,80.03
2016-12-02T06:17:18.719Z,80.51
2016-12-02T06:18:30.263Z,79.65
2016-12-02T06:19:42.091Z,80.03
2016-12-02T06:20:53.597Z,79.74
2016-12-02T06:22:05.284Z,79.94
2016-12-02T06:23:17.287Z,79.74
2016-12-02T06:24:28.575Z,79.79
2016-12-02T06:25:39.871Z,80.32
2016-12-02T06:26:51.461Z,80.41
2016-12-02T06:28:02.968Z,80.88
2016-12-02T06:29:14.811Z,80.6
2016-12-02T06:30:26.171Z,80.79
2016-12-02T06:33:03.824Z,80.6
2016-12-02T06:34:15.792Z,80.6
2016-12-02T06:35:27.590Z,80.6
2016-12-02T06:36:39.025Z,80.6
2016-12-02T06:37:50.353Z,80.79
2016-12-02T06:39:01.925Z,80.6
2016-12-02T06:40:13.551Z,80.79
2016-12-02T06:41:25.108Z,80.98
2016-12-02T06:42:36.398Z,80.88
2016-12-02T06:43:47.620Z,80.88
2016-12-02T06:44:59.223Z,81.36
2016-12-02T06:46:10.538Z,81.36
2016-12-02T06:47:22.637Z,81.36
2016-12-02T06:48:34.086Z,80.98
2016-12-02T06:49:45.310Z,81.17
2016-12-02T06:50:56.945Z,80.98
2016-12-02T06:52:08.324Z,80.74
2016-12-02T06:53:20.383Z,80.35
2016-12-02T06:54:31.692Z,81.02
2016-12-02T06:57:09.914Z,80.35
2016-12-02T06:58:21.688Z,80.35
2016-12-02T06:59:33.660Z,80.35
2016-12-02T07:00:45.031Z,80.55
2016-12-02T07:01:56.427Z,80.74
2016-12-02T07:03:08.172Z,80.45
2016-12-02T07:04:20.135Z,80.26
2016-12-02T07:05:36.101Z,79.97
2016-12-02T07:06:47.705Z,80.07
2016-12-02T07:07:59.247Z,79.88
2016-12-02T07:09:10.991Z,79.79
2016-12-02T07:10:22.412Z,79.79
2016-12-02T07:11:34.374Z,80.45
2016-12-02T07:12:45.714Z,80.55
2016-12-02T07:13:59.309Z,80.83
2016-12-02T07:15:11.328Z,80.07
2016-12-02T07:16:23.074Z,79.88
2016-12-02T07:17:34.624Z,79.69
2016-12-02T07:18:46.476Z,79.69
2016-12-02T07:19:57.813Z,79.97
2016-12-02T07:21:09.462Z,80.07
2016-12-02T07:22:23.985Z,79.6
2016-12-02T07:23:35.832Z,79.88
2016-12-02T07:24:47.402Z,79.69
2016-12-02T07:25:59.014Z,80.07
2016-12-02T07:27:10.979Z,79.88
2016-12-02T07:28:23.117Z,79.79
2016-12-02T07:29:35.277Z,80.74
2016-12-02T07:30:46.974Z,79.31
2016-12-02T07:31:58.379Z,79.69
2016-12-02T07:33:09.954Z,79.6
2016-12-02T07:34:21.461Z,79.41
2016-12-02T07:35:33.195Z,79.6
2016-12-02T07:36:45.042Z,79.5
2016-12-02T07:37:56.386Z,79.5
2016-12-02T07:39:07.842Z,79.31
2016-12-02T07:40:19.174Z,79.6
2016-12-02T07:41:31.080Z,79.88
2016-12-02T07:42:42.359Z,79.6
2016-12-02T07:43:54.407Z,79.41
2016-12-02T07:45:06.230Z,79.6
2016-12-02T07:46:17.669Z,80.16
2016-12-02T07:47:29.216Z,80.07
2016-12-02T07:48:40.514Z,79.63
2016-12-02T07:49:52.252Z,79.63
2016-12-02T07:51:03.690Z,79.22
2016-12-02T07:52:15.385Z,79.79
2016-12-02T07:53:27.074Z,79.44
2016-12-02T07:54:38.360Z,79.44
2016-12-02T07:55:50.211Z,79.83
2016-12-02T07:57:01.861Z,79.44
2016-12-02T07:58:13.512Z,79.63
2016-12-02T07:59:25.095Z,79.73
2016-12-02T08:00:36.664Z,79.6
2016-12-02T08:01:47.973Z,79.54
2016-12-02T08:02:59.583Z,79.63
2016-12-02T08:04:10.940Z,79.31
2016-12-02T08:05:22.463Z,79.69
2016-12-02T08:06:34.128Z,79.69
2016-12-02T08:07:45.565Z,79.69
2016-12-02T08:08:57.069Z,79.41
2016-12-02T08:10:08.848Z,79.5
2016-12-02T08:11:20.799Z,79.88
2016-12-02T08:12:32.044Z,79.5
2016-12-02T08:13:43.488Z,79.41
2016-12-02T08:14:54.829Z,79.31
2016-12-02T08:16:06.217Z,79.5
2016-12-02T08:17:18.125Z,79.69
2016-12-02T08:18:29.382Z,79.88
2016-12-02T08:19:41.029Z,79.79
2016-12-02T08:20:52.776Z,79.88
2016-12-02T08:22:04.321Z,80.07
2016-12-02T08:23:30.671Z,79.88
2016-12-02T08:24:42.325Z,79.88
2016-12-02T08:25:53.922Z,79.41
2016-12-02T08:27:20.501Z,80.07
2016-12-02T08:28:34.316Z,79.5
2016-12-02T08:29:45.913Z,79.88
2016-12-02T08:30:57.573Z,79.88
2016-12-02T08:32:09.082Z,79.5
2016-12-02T08:33:20.733Z,79.41
2016-12-02T08:34:32.380Z,79.22
2016-12-02T08:35:43.630Z,79.22
2016-12-02T08:36:55.422Z,78.83
2016-12-02T08:38:07.015Z,78.64
2016-12-02T08:39:19.058Z,78.93
2016-12-02T08:40:31.278Z,78.83
2016-12-02T08:41:43.214Z,79.12
2016-12-02T08:42:54.405Z,78.97
2016-12-02T08:44:06.037Z,78.78
2016-12-02T08:45:17.398Z,78.97
2016-12-02T08:46:29.246Z,78.64
2016-12-02T08:47:40.987Z,78.69
2016-12-02T08:48:52.674Z,79.06
2016-12-02T08:50:04.377Z,78.5
2016-12-02T08:51:16.019Z,78.78
2016-12-02T08:52:28.097Z,78.4
2016-12-02T08:53:40.003Z,78.3
2016-12-02T08:54:51.560Z,78.59
2016-12-02T08:56:03.284Z,78.78
2016-12-02T08:57:15.027Z,78.88
2016-12-02T08:58:27.601Z,78.88
2016-12-02T08:59:40.170Z,78.69
2016-12-02T09:00:51.540Z,78.59
2016-12-02T09:02:03.002Z,78.3
2016-12-02T09:03:14.653Z,78.3
2016-12-02T09:04:26.469Z,78.59
2016-12-02T09:05:38.667Z,78.5
2016-12-02T09:06:50.084Z,78.93
2016-12-02T09:08:02.007Z,79.22
2016-12-02T09:09:13.345Z,79.22
2016-12-02T09:10:24.985Z,78.83
2016-12-02T09:11:37.142Z,78.97
2016-12-02T09:12:49.430Z,78.97
2016-12-02T09:14:01.480Z,78.5
2016-12-02T09:15:12.776Z,78.69
2016-12-02T09:16:24.206Z,78.88
2016-12-02T09:17:36.036Z,79.06
2016-12-02T09:18:47.618Z,78.97
2016-12-02T09:19:59.323Z,78.5
2016-12-02T09:21:10.731Z,78.59
2016-12-02T09:22:23.191Z,78.21
2016-12-02T09:23:34.643Z,78.5
2016-12-02T09:24:46.702Z,78.88
2016-12-02T09:25:58.838Z,78.3
2016-12-02T09:27:10.327Z,78.3
2016-12-02T09:28:21.615Z,77.73
2016-12-02T09:29:33.265Z,77.83
2016-12-02T09:30:44.774Z,78.02
2016-12-02T09:31:56.293Z,77.92
2016-12-02T09:33:07.847Z,77.97
2016-12-02T09:34:20.403Z,77.73
2016-12-02T09:35:32.211Z,77.64
2016-12-02T09:36:43.680Z,77.39
2016-12-02T09:37:54.956Z,77.01
2016-12-02T09:39:07.390Z,77.2
2016-12-02T09:40:19.000Z,77.11
2016-12-02T09:41:30.754Z,76.63
2016-12-02T09:42:44.665Z,76.82
2016-12-02T09:43:56.607Z,76.54
2016-12-02T09:45:23.186Z,76.82
2016-12-02T09:46:34.980Z,76.82
2016-12-02T09:47:46.641Z,76.25
2016-12-02T09:48:58.458Z,76.25
2016-12-02T09:50:09.848Z,76.54
2016-12-02T09:51:21.628Z,76.54
2016-12-02T09:52:32.852Z,76.06
2016-12-02T09:53:44.993Z,76.16
2016-12-02T09:54:56.575Z,76.44
2016-12-02T09:56:08.113Z,76.54
2016-12-02T09:57:20.056Z,76.73
2016-12-02T09:58:31.717Z,76.25
2016-12-02T09:59:43.561Z,76.2
2016-12-02T10:00:55.132Z,76.01
2016-12-02T10:02:06.773Z,76.57
2016-12-02T10:03:18.014Z,75.72
2016-12-02T10:04:29.319Z,75.62
2016-12-02T10:05:56.636Z,76.01
2016-12-02T10:07:08.392Z,75.81
2016-12-02T10:08:19.730Z,76.67
2016-12-02T10:09:31.429Z,75.72
2016-12-02T10:10:43.191Z,75.05
2016-12-02T10:11:55.205Z,74.58
2016-12-02T10:13:06.679Z,74.43
2016-12-02T10:14:17.873Z,74.9
2016-12-02T10:15:29.632Z,74.62
2016-12-02T10:16:41.453Z,74.62
2016-12-02T10:17:55.784Z,74.71
2016-12-02T10:19:09.879Z,74.24
2016-12-02T10:20:23.990Z,74.04
2016-12-02T10:21:38.100Z,73.66
2016-12-02T10:22:52.369Z,73.85
2016-12-02T10:24:06.900Z,74.33
2016-12-02T10:25:20.683Z,73.85
2016-12-02T10:26:34.650Z,74.14
2016-12-02T10:27:48.667Z,73.85
2016-12-02T10:29:02.748Z,73.57
2016-12-02T10:30:16.921Z,73.66
2016-12-02T10:31:31.338Z,73.76
2016-12-02T10:32:45.689Z,73.85
2016-12-02T10:33:59.704Z,74.14
2016-12-02T10:35:13.716Z,74.04
2016-12-02T10:36:28.196Z,74.04
2016-12-02T10:37:41.863Z,73.85
2016-12-02T10:38:56.344Z,73.38
2016-12-02T10:40:10.807Z,73.57
2016-12-02T10:41:25.356Z,73.76
2016-12-02T10:42:40.453Z,74.04
2016-12-02T10:43:54.141Z,74.14
2016-12-02T10:45:08.665Z,74.24
2016-12-02T10:46:22.596Z,73.76
2016-12-02T10:47:36.716Z,73.19
2016-12-02T10:48:51.010Z,73.1
2016-12-02T10:50:05.223Z,73.1
2016-12-02T10:51:19.389Z,73.1
2016-12-02T10:52:33.276Z,73.57
2016-12-02T10:54:02.515Z,73.19
2016-12-02T10:55:16.796Z,73.38
2016-12-02T10:56:30.748Z,73.47
2016-12-02T10:57:44.849Z,73.19
2016-12-02T10:59:00.797Z,73.66
2016-12-02T11:00:15.134Z,73.47
2016-12-02T11:01:29.484Z,73.76
2016-12-02T11:02:43.675Z,74.14
2016-12-02T11:04:10.406Z,73.85
2016-12-02T11:05:24.893Z,74.04
2016-12-02T11:06:39.410Z,74.8
2016-12-02T11:07:53.570Z,74.14
2016-12-02T11:09:07.355Z,74.43
2016-12-02T11:10:21.499Z,73.95
2016-12-02T11:11:35.277Z,73.85
2016-12-02T11:12:49.628Z,73.85
2016-12-02T11:14:03.806Z,73.76
2016-12-02T11:15:17.710Z,73.19
2016-12-02T11:16:31.799Z,73.76
2016-12-02T11:17:45.637Z,73.57
2016-12-02T11:18:59.901Z,73.19
2016-12-02T11:20:14.124Z,73.38
2016-12-02T11:21:29.284Z,73.38
2016-12-02T11:22:43.799Z,72.62
2016-12-02T11:23:57.708Z,73.85
2016-12-02T11:25:11.842Z,73.38
2016-12-02T11:26:25.688Z,73.38
2016-12-02T11:27:40.196Z,73.38
2016-12-02T11:28:54.197Z,72.9
2016-12-02T11:30:08.008Z,73.66
2016-12-02T11:31:22.883Z,73.61
2016-12-02T11:32:36.878Z,72.9
2016-12-02T11:33:50.626Z,72.94
2016-12-02T11:35:04.396Z,72.85
2016-12-02T11:36:33.373Z,73.38
2016-12-02T11:37:48.987Z,73.38
2016-12-02T11:39:02.993Z,72.85
2016-12-02T11:40:16.858Z,72.94
2016-12-02T11:41:31.495Z,72.65
2016-12-02T11:42:46.022Z,72.85
2016-12-02T11:44:00.006Z,72.56
2016-12-02T11:45:14.147Z,72.94
2016-12-02T11:46:43.082Z,73.13
2016-12-02T11:47:57.234Z,72.65
2016-12-02T11:49:12.141Z,73.41
2016-12-02T11:50:26.100Z,72.85
2016-12-02T11:51:40.596Z,73.41
2016-12-02T11:52:55.211Z,72.94
2016-12-02T11:54:08.889Z,73.61
2016-12-02T11:55:23.296Z,73.51
2016-12-02T11:56:37.363Z,72.75
2016-12-02T11:57:51.373Z,72.94
2016-12-02T11:59:05.486Z,73.03
2016-12-02T12:00:20.144Z,73.03
2016-12-02T12:01:35.507Z,73.32
2016-12-02T12:02:49.421Z,72.75
2016-12-02T12:04:04.289Z,73.03
2016-12-02T12:05:18.158Z,73.03
2016-12-02T12:06:32.282Z,73.89
2016-12-02T12:07:46.653Z,73.41
2016-12-02T12:09:01.047Z,73.41
2016-12-02T12:10:15.131Z,73.51
2016-12-02T12:11:28.975Z,73.03
2016-12-02T12:12:43.316Z,73.32
2016-12-02T12:13:57.479Z,72.65
2016-12-02T12:15:11.972Z,73.03
2016-12-02T12:16:28.552Z,72.27
2016-12-02T12:17:42.700Z,72.46
2016-12-02T12:18:56.572Z,71.89
2016-12-02T12:20:10.600Z,72.37
2016-12-02T12:21:24.776Z,72.37
2016-12-02T12:22:39.320Z,72.46
2016-12-02T12:23:54.350Z,72.17
2016-12-02T12:25:08.114Z,72.17
2016-12-02T12:26:22.455Z,72.37
2016-12-02T12:27:36.606Z,72.37
2016-12-02T12:28:51.382Z,72.46
2016-12-02T12:30:05.277Z,71.51
2016-12-02T12:31:19.055Z,67.99
2016-12-02T12:32:33.211Z,68.75
2016-12-02T12:33:47.242Z,68.81
2016-12-02T12:35:01.485Z,69.29
2016-12-02T12:36:15.851Z,69.1
2016-12-02T12:37:29.696Z,69.19
2016-12-02T12:38:43.983Z,68.81
2016-12-02T12:39:58.529Z,68.52
2016-12-02T12:41:12.817Z,69.29
2016-12-02T12:43:55.994Z,69.29
2016-12-02T12:45:10.145Z,68.81
2016-12-02T12:46:24.618Z,68.9
2016-12-02T12:47:38.801Z,68.33
2016-12-02T12:48:53.212Z,69.19
2016-12-02T12:50:07.371Z,68.52
2016-12-02T12:51:21.674Z,69.1
2016-12-02T12:52:36.038Z,68.81
2016-12-02T12:53:50.956Z,69.1
2016-12-02T12:55:05.009Z,68.81
2016-12-02T12:56:19.869Z,68.9
2016-12-02T12:57:49.640Z,68.9
2016-12-02T12:59:04.479Z,68.9
2016-12-02T13:00:18.764Z,69.48
2016-12-02T13:01:33.707Z,69.76
2016-12-02T13:02:48.227Z,69.19
2016-12-02T13:04:02.519Z,69.57
2016-12-02T13:05:16.996Z,69.95
2016-12-02T13:06:31.729Z,69.19
2016-12-02T13:07:46.158Z,69.95
2016-12-02T13:09:00.543Z,69.76
2016-12-02T13:10:14.767Z,70.05
2016-12-02T13:11:29.030Z,70.05
2016-12-02T13:12:43.229Z,69.48
2016-12-02T13:13:57.576Z,70.24
2016-12-02T13:15:11.456Z,70.24
2016-12-02T13:16:25.551Z,70.33
2016-12-02T13:17:39.318Z,70.81
2016-12-02T13:18:53.532Z,70.9
2016-12-02T13:20:08.159Z,70.43
2016-12-02T13:21:21.997Z,70.43
2016-12-02T13:22:36.290Z,70.43
2016-12-02T13:23:50.475Z,70.24
2016-12-02T13:25:19.395Z,70.9
2016-12-02T13:26:34.045Z,70.62
2016-12-02T13:27:48.206Z,70.81
2016-12-02T13:29:02.621Z,70.81
2016-12-02T13:30:16.731Z,70.72
2016-12-02T13:31:30.918Z,71.47
2016-12-02T13:32:45.529Z,72.05
2016-12-02T13:34:16.715Z,72.42
2016-12-02T13:35:30.983Z,72.62
2016-12-02T13:36:45.310Z,73.85
2016-12-02T13:37:59.804Z,74.1
2016-12-02T13:39:13.994Z,74.77
2016-12-02T13:40:28.151Z,75.62
2016-12-02T13:41:42.008Z,75.72
2016-12-02T13:42:55.942Z,74.67
2016-12-02T13:44:11.072Z,73.02
2016-12-02T13:45:24.879Z,73.88
2016-12-02T13:46:38.977Z,74.82
2016-12-02T13:47:53.018Z,75.11
2016-12-02T13:49:04.555Z,75.96
2016-12-02T13:50:16.230Z,74.73
2016-12-02T13:51:28.011Z,75.36
2016-12-02T13:52:39.875Z,76.4
2016-12-02T13:53:51.144Z,76.4
2016-12-02T13:55:03.134Z,76.5
2016-12-02T13:56:15.676Z,76.12
2016-12-02T13:57:30.899Z,76.03
2016-12-02T13:58:42.504Z,76.69
2016-12-02T13:59:54.184Z,76.21
2016-12-02T14:01:05.570Z,75.45
2016-12-02T14:02:17.615Z,74.31
2016-12-02T14:03:44.273Z,74.69
2016-12-02T14:04:55.907Z,73.84
2016-12-02T14:06:07.578Z,73.84
2016-12-02T14:07:19.665Z,73.93
2016-12-02T14:08:31.335Z,73.84
2016-12-02T14:09:43.243Z,72.79
2016-12-02T14:10:54.642Z,73.18
2016-12-02T14:12:06.063Z,72.79
2016-12-02T14:13:17.451Z,72.7
2016-12-02T14:14:29.982Z,71.84
2016-12-02T14:15:41.571Z,69.37
2016-12-02T14:16:52.835Z,69.94
2016-12-02T14:18:04.380Z,70.23
2016-12-02T14:19:15.881Z,70.04
2016-12-02T14:20:28.134Z,70.23
2016-12-02T14:21:40.229Z,70.04
2016-12-02T14:22:52.323Z,70.04
2016-12-02T14:24:04.090Z,70.04
2016-12-02T14:25:15.608Z,70.13
2016-12-02T14:26:27.407Z,69.27
2016-12-02T14:27:38.605Z,68.13
2016-12-02T14:28:50.310Z,68.33
2016-12-02T14:30:04.821Z,69.37
2016-12-02T14:31:18.548Z,69.37
2016-12-02T14:32:32.768Z,69.75
2016-12-02T14:33:46.673Z,68.42
2016-12-02T14:35:00.827Z,68.8
2016-12-02T14:36:14.696Z,69.27
2016-12-02T14:37:28.532Z,69.85
2016-12-02T14:38:42.872Z,68.99
2016-12-02T14:39:56.737Z,69.46
2016-12-02T14:41:11.198Z,70.61
2016-12-02T14:42:25.741Z,70.32
2016-12-02T14:43:39.591Z,70.42
2016-12-02T14:44:54.158Z,70.61
2016-12-02T14:46:08.085Z,71.84
2016-12-02T14:47:22.347Z,70.61
2016-12-02T14:48:36.814Z,70.42
2016-12-02T14:49:53.221Z,71.27
2016-12-02T14:51:07.948Z,69.94
2016-12-02T14:52:22.322Z,70.04
2016-12-02T14:53:36.458Z,70.13
2016-12-02T14:54:51.216Z,69.94
2016-12-02T14:56:05.233Z,69.66
2016-12-02T14:57:19.800Z,69.56
2016-12-02T14:58:33.725Z,68.52
2016-12-02T14:59:47.693Z,68.42
2016-12-02T15:01:01.978Z,68.33
2016-12-02T15:02:17.016Z,69.66
2016-12-02T15:03:31.489Z,69.09
2016-12-02T15:04:45.602Z,68.8
2016-12-02T15:06:00.112Z,69.37
2016-12-02T15:07:14.046Z,68.42
2016-12-02T15:08:28.808Z,68.33
2016-12-02T15:09:43.397Z,67.76
2016-12-02T15:10:57.923Z,67.47
2016-12-02T15:12:13.013Z,68.33
2016-12-02T15:13:27.790Z,68.33
2016-12-02T15:14:42.045Z,68.33
2016-12-02T15:15:56.792Z,68.42
2016-12-02T15:20:10.587Z,66.9
2016-12-02T15:21:30.380Z,67.53
2016-12-02T15:22:46.020Z,67.06
2016-12-02T15:24:00.917Z,66.77
2016-12-02T15:25:15.340Z,67.63
2016-12-02T15:26:30.006Z,67.82
2016-12-02T15:27:45.536Z,67.91
2016-12-02T15:29:00.809Z,66.96
2016-12-02T15:30:29.908Z,67.72
2016-12-02T15:31:44.258Z,67.72
2016-12-02T15:32:59.020Z,67.09
2016-12-02T15:34:13.384Z,67.47
2016-12-02T15:35:27.725Z,67.72
2016-12-02T15:36:41.853Z,67.76
2016-12-02T15:37:56.548Z,68.01
2016-12-02T15:39:12.676Z,68.39
2016-12-02T15:40:27.966Z,67.82
2016-12-02T15:41:42.201Z,67.72
2016-12-02T15:42:57.685Z,67.53
2016-12-02T15:44:12.614Z,67.72
2016-12-02T15:45:27.204Z,67.34
2016-12-02T15:46:41.551Z,67.72
2016-12-02T15:47:55.921Z,68.39
2016-12-02T15:49:10.625Z,68.1
2016-12-02T15:50:24.776Z,68.39
2016-12-02T15:51:39.306Z,68.19
2016-12-02T15:52:53.751Z,68.1
2016-12-02T15:54:09.195Z,68.29
2016-12-02T15:55:23.727Z,68.29
2016-12-02T15:56:40.002Z,68.19
2016-12-02T15:57:55.672Z,68.29
2016-12-02T15:59:09.802Z,68.39
2016-12-02T16:00:23.874Z,68.1
2016-12-02T16:01:37.707Z,68.29
2016-12-02T16:02:51.725Z,69.15
2016-12-02T16:04:06.868Z,69.15
2016-12-02T16:05:21.465Z,69.53